OAL463 KMIA-KEWR
Flight info
| Callsign | OAL463 |
|---|---|
| Flight time | N/A |
| Altitude | 33000 |
| Route | FOLZZ3 ALYRA GRUBR Y299 SEELO GARIC Q129 AARNN QUART |
| Aircraft | B77L/H-SDE1E2E3FGHIJ2J3J4J5M1RWXY/LB1D1 |
Departure
| Time | N/A |
|---|---|
| Airport | Miami International Airport (KMIA) |
Arrival
| Time | 2026-04-21 19:00 |
|---|---|
| Airport | Newark Liberty International Airport (KEWR) |
| Time | Latitude | Longitude | Altitude | Speed | Heading |
|---|---|---|---|---|---|
| 2026-04-21 17:30 | 32.75334 | -78.15000 | 35402 ft | 445 kts | 0° |
| 2026-04-21 17:30 | 32.81481 | -78.14092 | 35403 ft | 445 kts | 0° |
| 2026-04-21 17:31 | 32.87623 | -78.13183 | 35403 ft | 444 kts | 0° |
| 2026-04-21 17:31 | 32.93754 | -78.12275 | 35396 ft | 444 kts | 0° |
| 2026-04-21 17:32 | 32.99879 | -78.11365 | 35395 ft | 443 kts | 0° |
| 2026-04-21 17:32 | 33.04961 | -78.10608 | 35394 ft | 442 kts | 0° |
| 2026-04-21 17:33 | 33.12092 | -78.09547 | 35395 ft | 441 kts | 0° |
| 2026-04-21 17:33 | 33.17149 | -78.08792 | 35392 ft | 440 kts | 0° |
| 2026-04-21 17:34 | 33.24246 | -78.07734 | 35398 ft | 440 kts | 0° |
| 2026-04-21 17:34 | 33.29289 | -78.06981 | 35395 ft | 439 kts | 0° |
| 2026-04-21 17:35 | 33.35356 | -78.06073 | 35398 ft | 439 kts | 0° |
| 2026-04-21 17:35 | 33.41418 | -78.05165 | 35406 ft | 439 kts | 0° |
| 2026-04-21 17:36 | 33.47472 | -78.04254 | 35407 ft | 439 kts | 0° |
| 2026-04-21 17:36 | 33.53531 | -78.03345 | 35404 ft | 438 kts | 0° |
| 2026-04-21 17:37 | 33.59588 | -78.02436 | 35404 ft | 438 kts | 0° |
| 2026-04-21 17:37 | 33.65636 | -78.01522 | 35406 ft | 438 kts | 0° |
| 2026-04-21 17:38 | 33.71686 | -78.00609 | 35407 ft | 438 kts | 0° |
| 2026-04-21 17:38 | 33.77736 | -77.99694 | 35404 ft | 438 kts | 0° |
| 2026-04-21 17:39 | 33.83781 | -77.98779 | 35404 ft | 437 kts | 0° |
| 2026-04-21 17:39 | 33.89815 | -77.98061 | 35405 ft | 432 kts | 355° |
| 2026-04-21 17:40 | 33.95828 | -77.97862 | 35406 ft | 432 kts | 355° |
| 2026-04-21 17:40 | 34.01848 | -77.97673 | 35406 ft | 433 kts | 355° |
| 2026-04-21 17:41 | 34.07832 | -77.97467 | 35408 ft | 433 kts | 355° |
| 2026-04-21 17:41 | 34.13854 | -77.97249 | 35405 ft | 433 kts | 355° |
| 2026-04-21 17:42 | 34.19879 | -77.97030 | 35406 ft | 433 kts | 355° |
| 2026-04-21 17:42 | 34.25907 | -77.96810 | 35403 ft | 433 kts | 355° |
| 2026-04-21 17:43 | 34.31926 | -77.96590 | 35405 ft | 433 kts | 355° |
| 2026-04-21 17:43 | 34.37947 | -77.96370 | 35404 ft | 433 kts | 355° |
| 2026-04-21 17:44 | 34.43969 | -77.96149 | 35406 ft | 433 kts | 355° |
| 2026-04-21 17:44 | 34.49994 | -77.95929 | 35405 ft | 433 kts | 355° |
| 2026-04-21 17:45 | 34.56020 | -77.95708 | 35404 ft | 433 kts | 355° |
| 2026-04-21 17:45 | 34.62052 | -77.95486 | 35405 ft | 434 kts | 355° |
| 2026-04-21 17:46 | 34.68089 | -77.95263 | 35404 ft | 434 kts | 356° |
| 2026-04-21 17:46 | 34.74127 | -77.95040 | 35405 ft | 435 kts | 356° |
| 2026-04-21 17:47 | 34.80172 | -77.94816 | 35404 ft | 435 kts | 356° |
| 2026-04-21 17:47 | 34.86230 | -77.94592 | 35414 ft | 435 kts | 356° |
| 2026-04-21 17:48 | 34.92281 | -77.94368 | 35416 ft | 435 kts | 356° |
| 2026-04-21 17:48 | 34.98298 | -77.94147 | 35423 ft | 435 kts | 356° |
| 2026-04-21 17:49 | 35.04365 | -77.93918 | 35425 ft | 436 kts | 356° |
| 2026-04-21 17:49 | 35.10422 | -77.93693 | 35421 ft | 436 kts | 356° |
| 2026-04-21 17:50 | 35.16477 | -77.93469 | 35421 ft | 435 kts | 356° |
| 2026-04-21 17:50 | 35.22537 | -77.93243 | 35424 ft | 435 kts | 356° |
| 2026-04-21 17:51 | 35.28592 | -77.93014 | 35433 ft | 435 kts | 356° |
| 2026-04-21 17:51 | 35.34612 | -77.93086 | 35449 ft | 430 kts | 351° |
| 2026-04-21 17:52 | 35.40577 | -77.93607 | 35447 ft | 430 kts | 351° |
| 2026-04-21 17:52 | 35.46559 | -77.94125 | 35431 ft | 431 kts | 351° |
| 2026-04-21 17:53 | 35.52551 | -77.94629 | 35418 ft | 432 kts | 351° |
| 2026-04-21 17:53 | 35.58510 | -77.95125 | 35415 ft | 432 kts | 351° |
| 2026-04-21 17:54 | 35.64505 | -77.95624 | 35422 ft | 432 kts | 351° |
| 2026-04-21 17:54 | 35.70503 | -77.96122 | 35432 ft | 431 kts | 351° |
| 2026-04-21 17:55 | 35.76488 | -77.96623 | 35433 ft | 432 kts | 351° |
| 2026-04-21 17:55 | 35.82485 | -77.97126 | 35439 ft | 432 kts | 351° |
| 2026-04-21 17:56 | 35.88477 | -77.97628 | 35440 ft | 431 kts | 351° |
| 2026-04-21 17:56 | 35.94472 | -77.98129 | 35440 ft | 432 kts | 351° |
| 2026-04-21 17:57 | 36.00460 | -77.98635 | 35441 ft | 431 kts | 351° |
| 2026-04-21 17:57 | 36.06452 | -77.99139 | 35440 ft | 431 kts | 351° |
| 2026-04-21 17:58 | 36.12448 | -77.99644 | 35437 ft | 431 kts | 351° |
| 2026-04-21 17:58 | 36.18439 | -78.00151 | 35436 ft | 431 kts | 351° |
| 2026-04-21 17:59 | 36.24426 | -78.00657 | 35433 ft | 431 kts | 351° |
| 2026-04-21 17:59 | 36.30415 | -78.01165 | 35429 ft | 431 kts | 351° |
| 2026-04-21 18:00 | 36.36389 | -78.01497 | 35436 ft | 435 kts | 356° |
| 2026-04-21 18:00 | 36.42446 | -78.00696 | 35431 ft | 442 kts | 5° |
| 2026-04-21 18:01 | 36.48476 | -77.99102 | 35432 ft | 443 kts | 6° |
| 2026-04-21 18:01 | 36.54507 | -77.97485 | 35436 ft | 443 kts | 6° |
| 2026-04-21 18:02 | 36.60533 | -77.95887 | 35445 ft | 443 kts | 5° |
| 2026-04-21 18:02 | 36.66563 | -77.94304 | 35452 ft | 443 kts | 5° |
| 2026-04-21 18:03 | 36.72600 | -77.92719 | 35452 ft | 444 kts | 5° |
| 2026-04-21 18:03 | 36.78640 | -77.91129 | 35439 ft | 444 kts | 6° |
| 2026-04-21 18:04 | 36.84694 | -77.89532 | 35431 ft | 445 kts | 6° |
| 2026-04-21 18:04 | 36.90750 | -77.87931 | 35426 ft | 445 kts | 6° |
| 2026-04-21 18:05 | 36.96816 | -77.86327 | 35432 ft | 445 kts | 6° |
| 2026-04-21 18:05 | 37.02874 | -77.84724 | 35432 ft | 445 kts | 6° |
| 2026-04-21 18:06 | 37.08931 | -77.83115 | 35430 ft | 445 kts | 6° |
| 2026-04-21 18:06 | 37.14996 | -77.81504 | 35435 ft | 445 kts | 6° |
| 2026-04-21 18:07 | 37.21056 | -77.79891 | 35423 ft | 445 kts | 6° |
| 2026-04-21 18:07 | 37.27082 | -77.78283 | 35423 ft | 446 kts | 6° |
| 2026-04-21 18:08 | 37.33148 | -77.76663 | 35407 ft | 446 kts | 6° |
| 2026-04-21 18:08 | 37.39217 | -77.75037 | 35395 ft | 446 kts | 6° |
| 2026-04-21 18:09 | 37.45291 | -77.73410 | 35396 ft | 446 kts | 6° |
| 2026-04-21 18:09 | 37.51353 | -77.71782 | 35398 ft | 445 kts | 6° |
| 2026-04-21 18:10 | 37.57418 | -77.70151 | 35392 ft | 446 kts | 6° |
| 2026-04-21 18:10 | 37.63483 | -77.68519 | 35386 ft | 445 kts | 6° |
| 2026-04-21 18:11 | 37.69543 | -77.66887 | 35386 ft | 445 kts | 6° |
| 2026-04-21 18:11 | 37.75609 | -77.65253 | 35389 ft | 445 kts | 6° |
| 2026-04-21 18:12 | 37.81673 | -77.63618 | 35385 ft | 445 kts | 6° |
| 2026-04-21 18:12 | 37.87735 | -77.61981 | 35385 ft | 445 kts | 6° |
| 2026-04-21 18:13 | 37.93798 | -77.60345 | 35378 ft | 445 kts | 6° |
| 2026-04-21 18:13 | 37.99859 | -77.58711 | 35377 ft | 446 kts | 6° |
| 2026-04-21 18:14 | 38.08957 | -77.56266 | 35374 ft | 445 kts | 6° |
| 2026-04-21 18:15 | 38.15017 | -77.54635 | 35369 ft | 445 kts | 6° |
| 2026-04-21 18:15 | 38.21077 | -77.53003 | 35365 ft | 445 kts | 6° |
| 2026-04-21 18:16 | 38.27138 | -77.51368 | 35351 ft | 445 kts | 6° |
| 2026-04-21 18:16 | 38.33193 | -77.49732 | 35360 ft | 445 kts | 6° |
| 2026-04-21 18:17 | 38.39258 | -77.48093 | 35361 ft | 445 kts | 6° |
| 2026-04-21 18:17 | 38.45314 | -77.46455 | 35371 ft | 445 kts | 6° |
| 2026-04-21 18:18 | 38.51380 | -77.44816 | 35366 ft | 445 kts | 6° |
| 2026-04-21 18:18 | 38.56416 | -77.43452 | 35369 ft | 445 kts | 6° |
| 2026-04-21 18:19 | 38.62471 | -77.41810 | 35380 ft | 445 kts | 6° |
| 2026-04-21 18:19 | 38.68528 | -77.40168 | 35379 ft | 444 kts | 6° |
| 2026-04-21 18:20 | 38.74580 | -77.38526 | 35375 ft | 444 kts | 6° |
| 2026-04-21 18:20 | 38.80626 | -77.36882 | 35371 ft | 444 kts | 6° |
| 2026-04-21 18:21 | 38.86679 | -77.35240 | 35369 ft | 444 kts | 6° |
| 2026-04-21 18:21 | 38.92687 | -77.33609 | 35364 ft | 444 kts | 6° |
| 2026-04-21 18:22 | 38.98725 | -77.31964 | 35351 ft | 444 kts | 6° |
| 2026-04-21 18:22 | 39.04768 | -77.30317 | 35354 ft | 443 kts | 7° |
| 2026-04-21 18:23 | 39.10782 | -77.28676 | 35345 ft | 441 kts | 7° |
| 2026-04-21 18:23 | 39.16771 | -77.27034 | 35345 ft | 439 kts | 7° |
| 2026-04-21 18:24 | 39.22731 | -77.25397 | 35366 ft | 437 kts | 7° |
| 2026-04-21 18:24 | 39.28670 | -77.23761 | 35365 ft | 436 kts | 7° |
| 2026-04-21 18:25 | 39.34602 | -77.22126 | 35369 ft | 436 kts | 7° |
| 2026-04-21 18:25 | 39.40536 | -77.20492 | 35380 ft | 436 kts | 7° |
| 2026-04-21 18:26 | 39.46473 | -77.18852 | 35383 ft | 436 kts | 7° |
| 2026-04-21 18:26 | 39.52377 | -77.17219 | 35370 ft | 437 kts | 7° |
| 2026-04-21 18:27 | 39.58333 | -77.15573 | 35345 ft | 438 kts | 7° |
| 2026-04-21 18:27 | 39.64334 | -77.13910 | 35342 ft | 438 kts | 7° |
| 2026-04-21 18:28 | 39.70294 | -77.12260 | 35327 ft | 438 kts | 7° |
| 2026-04-21 18:28 | 39.76216 | -77.10620 | 35323 ft | 438 kts | 7° |
| 2026-04-21 18:29 | 39.82165 | -77.08975 | 35323 ft | 437 kts | 7° |
| 2026-04-21 18:29 | 39.88117 | -77.07329 | 35320 ft | 437 kts | 7° |
| 2026-04-21 18:30 | 39.94044 | -77.05683 | 35325 ft | 435 kts | 7° |
| 2026-04-21 18:30 | 39.99959 | -77.04035 | 35328 ft | 434 kts | 7° |
| 2026-04-21 18:31 | 40.05867 | -77.02383 | 35326 ft | 434 kts | 7° |
| 2026-04-21 18:31 | 40.11754 | -77.00729 | 35324 ft | 432 kts | 7° |
| 2026-04-21 18:32 | 40.17630 | -76.99073 | 35321 ft | 431 kts | 7° |
| 2026-04-21 18:32 | 40.23486 | -76.97421 | 35322 ft | 430 kts | 7° |
| 2026-04-21 18:33 | 40.29218 | -76.95151 | 35345 ft | 437 kts | 20° |
| 2026-04-21 18:33 | 40.34462 | -76.90965 | 35319 ft | 452 kts | 35° |
| 2026-04-21 18:33 | 40.36576 | -76.87834 | 35339 ft | 465 kts | 47° |
| 2026-04-21 18:34 | 40.38222 | -76.84179 | 35249 ft | 471 kts | 57° |
| 2026-04-21 18:34 | 40.39325 | -76.80077 | 34891 ft | 477 kts | 68° |
| 2026-04-21 18:34 | 40.40151 | -76.75909 | 34445 ft | 473 kts | 68° |
| 2026-04-21 18:34 | 40.40959 | -76.71716 | 33994 ft | 469 kts | 68° |
| 2026-04-21 18:35 | 40.41488 | -76.68979 | 33705 ft | 466 kts | 68° |
| 2026-04-21 18:35 | 40.42561 | -76.63507 | 33111 ft | 460 kts | 67° |
| 2026-04-21 18:35 | 40.43369 | -76.59472 | 32656 ft | 456 kts | 67° |
| 2026-04-21 18:35 | 40.44180 | -76.55466 | 32218 ft | 452 kts | 67° |
| 2026-04-21 18:36 | 40.44989 | -76.51495 | 31775 ft | 448 kts | 67° |
| 2026-04-21 18:36 | 40.45793 | -76.47556 | 31332 ft | 445 kts | 67° |
| 2026-04-21 18:36 | 40.46592 | -76.43641 | 30877 ft | 442 kts | 67° |
| 2026-04-21 18:36 | 40.47380 | -76.39772 | 30438 ft | 438 kts | 67° |
| 2026-04-21 18:37 | 40.48165 | -76.35907 | 29993 ft | 434 kts | 67° |
| 2026-04-21 18:37 | 40.48929 | -76.32131 | 29543 ft | 431 kts | 67° |
| 2026-04-21 18:37 | 40.49692 | -76.28351 | 29101 ft | 428 kts | 67° |
| 2026-04-21 18:37 | 40.50454 | -76.24576 | 28657 ft | 425 kts | 67° |
| 2026-04-21 18:38 | 40.51206 | -76.20843 | 28221 ft | 421 kts | 67° |
| 2026-04-21 18:38 | 40.51949 | -76.17147 | 27799 ft | 418 kts | 67° |
| 2026-04-21 18:38 | 40.52690 | -76.13449 | 27363 ft | 415 kts | 67° |
| 2026-04-21 18:38 | 40.53424 | -76.09792 | 26937 ft | 412 kts | 67° |
| 2026-04-21 18:39 | 40.54151 | -76.06157 | 26522 ft | 409 kts | 67° |
| 2026-04-21 18:39 | 40.54872 | -76.02550 | 26116 ft | 406 kts | 67° |
| 2026-04-21 18:39 | 40.55581 | -75.98988 | 25711 ft | 404 kts | 67° |
| 2026-04-21 18:39 | 40.56293 | -75.95407 | 25306 ft | 403 kts | 67° |
| 2026-04-21 18:40 | 40.57004 | -75.91836 | 24905 ft | 405 kts | 67° |
| 2026-04-21 18:40 | 40.57726 | -75.88217 | 24516 ft | 413 kts | 67° |
| 2026-04-21 18:40 | 40.58211 | -75.85787 | 24244 ft | 418 kts | 67° |
| 2026-04-21 18:40 | 40.59193 | -75.80826 | 23663 ft | 417 kts | 68° |
| 2026-04-21 18:41 | 40.59915 | -75.77139 | 23241 ft | 415 kts | 68° |
| 2026-04-21 18:41 | 40.60630 | -75.73492 | 22825 ft | 412 kts | 68° |
| 2026-04-21 18:41 | 40.61345 | -75.69829 | 22415 ft | 409 kts | 68° |
| 2026-04-21 18:41 | 40.62052 | -75.66217 | 22011 ft | 406 kts | 68° |
| 2026-04-21 18:42 | 40.62746 | -75.62670 | 21618 ft | 404 kts | 67° |
| 2026-04-21 18:42 | 40.63442 | -75.59099 | 21206 ft | 401 kts | 68° |
| 2026-04-21 18:42 | 40.64131 | -75.55554 | 20791 ft | 398 kts | 68° |
| 2026-04-21 18:42 | 40.64815 | -75.52035 | 20401 ft | 396 kts | 68° |
| 2026-04-21 18:43 | 40.65497 | -75.48527 | 19907 ft | 396 kts | 68° |
| 2026-04-21 18:43 | 40.66178 | -75.45025 | 19478 ft | 394 kts | 68° |
| 2026-04-21 18:43 | 40.66853 | -75.41535 | 19064 ft | 392 kts | 68° |
| 2026-04-21 18:43 | 40.67520 | -75.38080 | 18661 ft | 389 kts | 68° |
| 2026-04-21 18:44 | 40.68185 | -75.34632 | 18259 ft | 386 kts | 68° |
| 2026-04-21 18:44 | 40.68841 | -75.31222 | 17864 ft | 383 kts | 68° |
| 2026-04-21 18:44 | 40.69493 | -75.27827 | 17466 ft | 380 kts | 68° |
| 2026-04-21 18:44 | 40.70138 | -75.24465 | 17072 ft | 377 kts | 68° |
| 2026-04-21 18:45 | 40.70779 | -75.21121 | 16683 ft | 375 kts | 68° |
| 2026-04-21 18:45 | 40.71413 | -75.17804 | 16282 ft | 372 kts | 68° |
| 2026-04-21 18:45 | 40.72041 | -75.14512 | 15893 ft | 369 kts | 68° |
| 2026-04-21 18:45 | 40.72663 | -75.11250 | 15512 ft | 366 kts | 68° |
| 2026-04-21 18:46 | 40.73280 | -75.08012 | 15118 ft | 362 kts | 69° |
| 2026-04-21 18:46 | 40.73890 | -75.04804 | 14742 ft | 359 kts | 69° |
| 2026-04-21 18:46 | 40.74494 | -75.01627 | 14384 ft | 356 kts | 69° |
| 2026-04-21 18:46 | 40.75090 | -74.98474 | 14014 ft | 353 kts | 69° |
| 2026-04-21 18:47 | 40.75683 | -74.95342 | 13634 ft | 352 kts | 69° |
| 2026-04-21 18:47 | 40.76274 | -74.92221 | 13259 ft | 348 kts | 69° |
| 2026-04-21 18:47 | 40.76853 | -74.89136 | 12913 ft | 345 kts | 69° |
| 2026-04-21 18:47 | 40.77428 | -74.86074 | 12542 ft | 342 kts | 69° |
| 2026-04-21 18:48 | 40.77996 | -74.83040 | 12184 ft | 339 kts | 69° |
| 2026-04-21 18:48 | 40.78558 | -74.80036 | 11816 ft | 336 kts | 69° |
| 2026-04-21 18:48 | 40.79117 | -74.77062 | 11459 ft | 331 kts | 70° |
| 2026-04-21 18:48 | 40.79668 | -74.74135 | 11136 ft | 328 kts | 70° |
| 2026-04-21 18:49 | 40.80214 | -74.71216 | 10890 ft | 326 kts | 71° |
| 2026-04-21 18:49 | 40.80747 | -74.68345 | 10739 ft | 318 kts | 71° |
| 2026-04-21 18:49 | 40.81094 | -74.66485 | 10642 ft | 311 kts | 71° |
| 2026-04-21 18:49 | 40.81764 | -74.62862 | 10460 ft | 296 kts | 71° |
| 2026-04-21 18:50 | 40.82245 | -74.60273 | 10338 ft | 285 kts | 71° |
| 2026-04-21 18:50 | 40.82718 | -74.57729 | 9848 ft | 289 kts | 71° |
| 2026-04-21 18:50 | 40.83205 | -74.55170 | 9505 ft | 285 kts | 70° |
| 2026-04-21 18:50 | 40.83822 | -74.52707 | 9180 ft | 281 kts | 66° |
| 2026-04-21 18:51 | 40.84491 | -74.50325 | 9056 ft | 272 kts | 66° |
| 2026-04-21 18:51 | 40.85162 | -74.47963 | 8921 ft | 280 kts | 67° |
| 2026-04-21 18:51 | 40.85867 | -74.45465 | 8316 ft | 297 kts | 68° |
| 2026-04-21 18:51 | 40.86567 | -74.42944 | 8013 ft | 283 kts | 68° |
| 2026-04-21 18:52 | 40.87220 | -74.40570 | 7617 ft | 267 kts | 68° |
| 2026-04-21 18:52 | 40.87832 | -74.38319 | 7324 ft | 260 kts | 68° |
| 2026-04-21 18:52 | 40.88461 | -74.36023 | 7071 ft | 271 kts | 69° |
| 2026-04-21 18:52 | 40.89105 | -74.33659 | 6751 ft | 276 kts | 69° |
| 2026-04-21 18:53 | 40.89744 | -74.31308 | 6434 ft | 274 kts | 69° |
| 2026-04-21 18:53 | 40.90381 | -74.28951 | 6123 ft | 271 kts | 69° |
| 2026-04-21 18:53 | 40.91010 | -74.26626 | 5829 ft | 266 kts | 69° |
| 2026-04-21 18:53 | 40.91629 | -74.24341 | 5531 ft | 263 kts | 70° |
| 2026-04-21 18:54 | 40.92243 | -74.22068 | 5250 ft | 262 kts | 70° |
| 2026-04-21 18:54 | 40.92856 | -74.19792 | 4965 ft | 262 kts | 70° |
| 2026-04-21 18:54 | 40.93353 | -74.17523 | 4632 ft | 252 kts | 87° |
| 2026-04-21 18:54 | 40.93031 | -74.15334 | 4433 ft | 238 kts | 120° |
| 2026-04-21 18:55 | 40.92401 | -74.14151 | 4265 ft | 230 kts | 134° |
| 2026-04-21 18:55 | 40.90807 | -74.12542 | 4064 ft | 210 kts | 152° |
| 2026-04-21 18:55 | 40.89563 | -74.11624 | 3993 ft | 199 kts | 153° |
| 2026-04-21 18:55 | 40.88360 | -74.10743 | 3675 ft | 200 kts | 153° |
| 2026-04-21 18:56 | 40.87189 | -74.09882 | 3516 ft | 187 kts | 153° |
| 2026-04-21 18:56 | 40.86057 | -74.09043 | 3378 ft | 186 kts | 152° |
| 2026-04-21 18:56 | 40.84923 | -74.08203 | 3189 ft | 187 kts | 153° |
| 2026-04-21 18:56 | 40.83715 | -74.07752 | 2940 ft | 180 kts | 186° |
| 2026-04-21 18:57 | 40.82549 | -74.08259 | 2773 ft | 178 kts | 202° |
| 2026-04-21 18:57 | 40.81374 | -74.08834 | 2502 ft | 177 kts | 201° |
| 2026-04-21 18:57 | 40.80282 | -74.09448 | 2303 ft | 164 kts | 204° |
| 2026-04-21 18:57 | 40.79275 | -74.10079 | 2072 ft | 160 kts | 205° |
| 2026-04-21 18:58 | 40.78275 | -74.10716 | 1851 ft | 160 kts | 205° |
| 2026-04-21 18:58 | 40.77275 | -74.11356 | 1645 ft | 160 kts | 205° |
| 2026-04-21 18:58 | 40.76265 | -74.12003 | 1426 ft | 162 kts | 206° |
| 2026-04-21 18:58 | 40.75253 | -74.12647 | 1209 ft | 161 kts | 206° |
| 2026-04-21 18:59 | 40.74251 | -74.13288 | 1001 ft | 160 kts | 206° |
| 2026-04-21 18:59 | 40.73254 | -74.13924 | 786 ft | 159 kts | 206° |
| 2026-04-21 18:59 | 40.72254 | -74.14563 | 577 ft | 159 kts | 206° |
| 2026-04-21 18:59 | 40.71259 | -74.15198 | 361 ft | 160 kts | 206° |
| 2026-04-21 19:00 | 40.70256 | -74.15838 | 113 ft | 158 kts | 206° |
| 2026-04-21 19:00 | 40.69308 | -74.16431 | 31 ft | 141 kts | 205° |
| 2026-04-21 19:00 | 40.68670 | -74.16849 | 30 ft | 55 kts | 206° |
| 2026-04-21 19:00 | 40.68510 | -74.17046 | 27 ft | 28 kts | 236° |
| 2026-04-21 19:01 | 40.68453 | -74.17276 | 28 ft | 26 kts | 294° |
| 2026-04-21 19:01 | 40.68540 | -74.17480 | 26 ft | 26 kts | 301° |
| 2026-04-21 19:01 | 40.68679 | -74.17500 | 27 ft | 23 kts | 24° |
| 2026-04-21 19:01 | 40.68810 | -74.17417 | 27 ft | 19 kts | 26° |
| 2026-04-21 19:02 | 40.68928 | -74.17339 | 26 ft | 19 kts | 25° |
| 2026-04-21 19:02 | 40.69051 | -74.17265 | 26 ft | 19 kts | 25° |
| 2026-04-21 19:02 | 40.69144 | -74.17204 | 26 ft | 11 kts | 21° |
| 2026-04-21 19:02 | 40.69179 | -74.17228 | 26 ft | 7 kts | 297° |
| 2026-04-21 19:03 | 40.69185 | -74.17294 | 26 ft | 7 kts | 274° |
| 2026-04-21 19:03 | 40.69187 | -74.17328 | 26 ft | 0 kts | 275° |
| 2026-04-21 19:03 | 40.69187 | -74.17335 | 26 ft | 1 kts | 275° |